sensor_id;sensor_type;location;lat;lon;timestamp;pressure;altitude;pressure_sealevel;temperature;humidity
19096;BME280;9680;52.520;13.332;2023-03-04T00:01:25;101586.78;;;1.96;81.76
19096;BME280;9680;52.520;13.332;2023-03-04T00:03:53;101578.22;;;1.97;82.03
19096;BME280;9680;52.520;13.332;2023-03-04T00:06:20;101584.22;;;1.96;81.98
19096;BME280;9680;52.520;13.332;2023-03-04T00:08:46;101590.19;;;1.97;82.16
19096;BME280;9680;52.520;13.332;2023-03-04T00:11:13;101582.59;;;2.03;82.83
19096;BME280;9680;52.520;13.332;2023-03-04T00:13:41;101582.72;;;2.15;83.05
19096;BME280;9680;52.520;13.332;2023-03-04T00:16:08;101577.72;;;2.31;83.11
19096;BME280;9680;52.520;13.332;2023-03-04T00:18:36;101565.84;;;2.45;82.33
19096;BME280;9680;52.520;13.332;2023-03-04T00:21:03;101562.53;;;2.57;82.04
19096;BME280;9680;52.520;13.332;2023-03-04T00:23:30;101572.94;;;2.68;81.62
19096;BME280;9680;52.520;13.332;2023-03-04T00:25:57;101562.63;;;2.70;81.26
19096;BME280;9680;52.520;13.332;2023-03-04T00:28:24;101565.28;;;2.78;80.98
19096;BME280;9680;52.520;13.332;2023-03-04T00:30:51;101567.88;;;2.85;80.83
19096;BME280;9680;52.520;13.332;2023-03-04T00:33:18;101568.75;;;2.84;80.35
19096;BME280;9680;52.520;13.332;2023-03-04T00:35:46;101567.91;;;2.84;80.06
19096;BME280;9680;52.520;13.332;2023-03-04T00:38:13;101565.28;;;2.79;80.44
19096;BME280;9680;52.520;13.332;2023-03-04T00:40:41;101561.88;;;2.83;80.31
19096;BME280;9680;52.520;13.332;2023-03-04T00:43:08;101561.06;;;2.94;80.27
19096;BME280;9680;52.520;13.332;2023-03-04T00:45:35;101559.41;;;2.97;79.93
19096;BME280;9680;52.520;13.332;2023-03-04T00:48:02;101561.06;;;2.94;79.62
19096;BME280;9680;52.520;13.332;2023-03-04T00:50:28;101553.38;;;2.92;79.72
19096;BME280;9680;52.520;13.332;2023-03-04T00:52:56;101556.84;;;2.99;79.75
19096;BME280;9680;52.520;13.332;2023-03-04T00:55:23;101561.16;;;3.00;79.69
19096;BME280;9680;52.520;13.332;2023-03-04T00:57:50;101555.09;;;2.96;79.57
19096;BME280;9680;52.520;13.332;2023-03-04T01:00:17;101549.09;;;2.94;79.44
19096;BME280;9680;52.520;13.332;2023-03-04T01:02:45;101543.94;;;2.96;79.66
19096;BME280;9680;52.520;13.332;2023-03-04T01:05:13;101549.09;;;2.96;79.45
19096;BME280;9680;52.520;13.332;2023-03-04T01:07:40;101538.75;;;2.92;79.51
19096;BME280;9680;52.520;13.332;2023-03-04T01:10:10;101534.50;;;2.93;79.52
19096;BME280;9680;52.520;13.332;2023-03-04T01:12:37;101546.50;;;2.96;79.77
19096;BME280;9680;52.520;13.332;2023-03-04T01:15:07;101540.56;;;3.01;79.66
19096;BME280;9680;52.520;13.332;2023-03-04T01:17:34;101530.28;;;3.03;79.38
19096;BME280;9680;52.520;13.332;2023-03-04T01:20:01;101533.69;;;3.02;79.28
19096;BME280;9680;52.520;13.332;2023-03-04T01:22:28;101534.56;;;3.01;79.46
19096;BME280;9680;52.520;13.332;2023-03-04T01:24:54;101529.44;;;3.04;79.39
19096;BME280;9680;52.520;13.332;2023-03-04T01:27:22;101506.25;;;3.04;79.05
19096;BME280;9680;52.520;13.332;2023-03-04T01:29:49;101514.84;;;3.08;79.35
19096;BME280;9680;52.520;13.332;2023-03-04T01:32:16;101508.84;;;3.10;79.28
19096;BME280;9680;52.520;13.332;2023-03-04T01:34:43;101499.44;;;3.15;79.25
19096;BME280;9680;52.520;13.332;2023-03-04T01:37:10;101508.84;;;3.12;79.14
19096;BME280;9680;52.520;13.332;2023-03-04T01:39:39;101510.59;;;3.14;79.24
19096;BME280;9680;52.520;13.332;2023-03-04T01:42:12;101509.75;;;3.15;79.21
19096;BME280;9680;52.520;13.332;2023-03-04T01:44:44;101507.19;;;3.18;79.10
19096;BME280;9680;52.520;13.332;2023-03-04T01:47:11;101495.16;;;3.19;79.14
19096;BME280;9680;52.520;13.332;2023-03-04T01:49:39;101499.44;;;3.20;78.87
19096;BME280;9680;52.520;13.332;2023-03-04T01:52:09;101497.75;;;3.20;79.12
19096;BME280;9680;52.520;13.332;2023-03-04T01:54:38;101484.03;;;3.26;79.13
19096;BME280;9680;52.520;13.332;2023-03-04T01:57:14;101491.78;;;3.34;79.16
19096;BME280;9680;52.520;13.332;2023-03-04T01:59:41;101480.66;;;3.38;79.02
19096;BME280;9680;52.520;13.332;2023-03-04T02:02:11;101478.94;;;3.35;79.11
19096;BME280;9680;52.520;13.332;2023-03-04T02:04:38;101484.97;;;3.38;79.33
19096;BME280;9680;52.520;13.332;2023-03-04T02:07:07;101473.78;;;3.43;79.24
19096;BME280;9680;52.520;13.332;2023-03-04T02:09:34;101480.69;;;3.50;79.25
19096;BME280;9680;52.520;13.332;2023-03-04T02:12:01;101482.44;;;3.59;79.23
19096;BME280;9680;52.520;13.332;2023-03-04T02:14:29;101473.84;;;3.57;78.88
19096;BME280;9680;52.520;13.332;2023-03-04T02:16:56;101471.28;;;3.60;78.95
19096;BME280;9680;52.520;13.332;2023-03-04T02:19:33;101463.56;;;3.60;79.20
19096;BME280;9680;52.520;13.332;2023-03-04T02:22:03;101462.69;;;3.63;79.17
19096;BME280;9680;52.520;13.332;2023-03-04T02:24:35;101465.31;;;3.69;79.20
19096;BME280;9680;52.520;13.332;2023-03-04T02:27:06;101455.84;;;3.71;79.38
19096;BME280;9680;52.520;13.332;2023-03-04T02:29:33;101461.00;;;3.71;78.89
19096;BME280;9680;52.520;13.332;2023-03-04T02:32:00;101454.97;;;3.74;79.23
19096;BME280;9680;52.520;13.332;2023-03-04T02:34:29;101440.38;;;3.70;79.28
19096;BME280;9680;52.520;13.332;2023-03-04T02:36:57;101440.41;;;3.74;79.50
19096;BME280;9680;52.520;13.332;2023-03-04T02:39:30;101434.38;;;3.75;79.69
19096;BME280;9680;52.520;13.332;2023-03-04T02:41:58;101438.69;;;3.79;79.71
19096;BME280;9680;52.520;13.332;2023-03-04T02:44:29;101432.66;;;3.85;79.54
19096;BME280;9680;52.520;13.332;2023-03-04T02:46:57;101424.09;;;3.88;79.34
19096;BME280;9680;52.520;13.332;2023-03-04T02:49:26;101424.06;;;3.92;79.29
19096;BME280;9680;52.520;13.332;2023-03-04T02:51:59;101424.94;;;3.91;79.06
19096;BME280;9680;52.520;13.332;2023-03-04T02:54:26;101422.34;;;3.88;79.47
19096;BME280;9680;52.520;13.332;2023-03-04T02:56:55;101418.06;;;3.87;79.56
19096;BME280;9680;52.520;13.332;2023-03-04T02:59:23;101418.91;;;3.96;79.46
19096;BME280;9680;52.520;13.332;2023-03-04T03:01:52;101423.22;;;3.93;79.71
19096;BME280;9680;52.520;13.332;2023-03-04T03:04:20;101419.78;;;3.94;79.56
19096;BME280;9680;52.520;13.332;2023-03-04T03:06:50;101421.50;;;3.97;79.78
19096;BME280;9680;52.520;13.332;2023-03-04T03:09:18;101420.66;;;3.95;79.47
19096;BME280;9680;52.520;13.332;2023-03-04T03:11:45;101418.94;;;3.94;79.60
19096;BME280;9680;52.520;13.332;2023-03-04T03:14:13;101412.91;;;3.95;79.89
19096;BME280;9680;52.520;13.332;2023-03-04T03:16:39;101414.63;;;3.94;79.91
19096;BME280;9680;52.520;13.332;2023-03-04T03:19:09;101416.34;;;3.97;80.07
19096;BME280;9680;52.520;13.332;2023-03-04T03:21:36;101417.22;;;3.99;79.92
19096;BME280;9680;52.520;13.332;2023-03-04T03:24:03;101409.47;;;3.99;80.01
19096;BME280;9680;52.520;13.332;2023-03-04T03:26:30;101411.19;;;4.00;80.21
19096;BME280;9680;52.520;13.332;2023-03-04T03:28:56;101403.47;;;3.97;80.58
19096;BME280;9680;52.520;13.332;2023-03-04T03:31:23;101413.78;;;4.03;80.73
19096;BME280;9680;52.520;13.332;2023-03-04T03:33:50;101400.03;;;4.00;80.56
19096;BME280;9680;52.520;13.332;2023-03-04T03:36:18;101401.75;;;4.01;80.83
19096;BME280;9680;52.520;13.332;2023-03-04T03:38:45;101397.44;;;4.11;80.68
19096;BME280;9680;52.520;13.332;2023-03-04T03:41:11;101404.31;;;4.10;80.29
19096;BME280;9680;52.520;13.332;2023-03-04T03:43:38;101389.72;;;4.09;80.53
19096;BME280;9680;52.520;13.332;2023-03-04T03:46:05;101389.69;;;4.11;80.57
19096;BME280;9680;52.520;13.332;2023-03-04T03:48:31;101383.69;;;4.12;80.37
19096;BME280;9680;52.520;13.332;2023-03-04T03:50:58;101393.16;;;4.11;80.50
19096;BME280;9680;52.520;13.332;2023-03-04T03:53:26;101384.56;;;4.12;80.56
19096;BME280;9680;52.520;13.332;2023-03-04T03:55:53;101377.66;;;4.17;80.64
19096;BME280;9680;52.520;13.332;2023-03-04T03:58:20;101383.66;;;4.21;80.36
19096;BME280;9680;52.520;13.332;2023-03-04T04:00:47;101379.38;;;4.18;80.24
19096;BME280;9680;52.520;13.332;2023-03-04T04:03:14;101374.22;;;4.15;80.40
19096;BME280;9680;52.520;13.332;2023-03-04T04:05:42;101359.59;;;4.19;80.49
19096;BME280;9680;52.520;13.332;2023-03-04T04:08:11;101374.22;;;4.21;80.44
19096;BME280;9680;52.520;13.332;2023-03-04T04:10:39;101374.22;;;4.21;80.39
19096;BME280;9680;52.520;13.332;2023-03-04T04:13:06;101372.50;;;4.30;80.52
19096;BME280;9680;52.520;13.332;2023-03-04T04:15:34;101378.50;;;4.30;80.19
19096;BME280;9680;52.520;13.332;2023-03-04T04:18:01;101373.34;;;4.30;80.27
19096;BME280;9680;52.520;13.332;2023-03-04T04:20:27;101371.63;;;4.28;79.97
19096;BME280;9680;52.520;13.332;2023-03-04T04:22:54;101361.31;;;4.28;80.37
19096;BME280;9680;52.520;13.332;2023-03-04T04:25:21;101370.78;;;4.33;80.26
19096;BME280;9680;52.520;13.332;2023-03-04T04:27:49;101360.47;;;4.33;80.28
19096;BME280;9680;52.520;13.332;2023-03-04T04:30:16;101360.44;;;4.35;80.26
19096;BME280;9680;52.520;13.332;2023-03-04T04:32:43;101362.16;;;4.37;80.23
19096;BME280;9680;52.520;13.332;2023-03-04T04:35:10;101356.13;;;4.43;80.20
19096;BME280;9680;52.520;13.332;2023-03-04T04:37:37;101353.53;;;4.46;79.96
19096;BME280;9680;52.520;13.332;2023-03-04T04:40:04;101353.53;;;4.49;79.78
19096;BME280;9680;52.520;13.332;2023-03-04T04:42:31;101349.22;;;4.50;79.78
19096;BME280;9680;52.520;13.332;2023-03-04T04:45:00;101346.63;;;4.51;79.80
19096;BME280;9680;52.520;13.332;2023-03-04T04:47:26;101356.09;;;4.54;79.78
19096;BME280;9680;52.520;13.332;2023-03-04T04:49:53;101356.94;;;4.51;79.58
19096;BME280;9680;52.520;13.332;2023-03-04T04:52:20;101350.91;;;4.56;79.71
19096;BME280;9680;52.520;13.332;2023-03-04T04:54:47;101351.78;;;4.56;79.65
19096;BME280;9680;52.520;13.332;2023-03-04T04:57:14;101344.91;;;4.58;79.67
19096;BME280;9680;52.520;13.332;2023-03-04T04:59:40;101346.59;;;4.62;79.55
19096;BME280;9680;52.520;13.332;2023-03-04T05:02:08;101340.59;;;4.65;79.64
19096;BME280;9680;52.520;13.332;2023-03-04T05:04:35;101338.81;;;4.72;79.44
19096;BME280;9680;52.520;13.332;2023-03-04T05:07:02;101338.81;;;4.72;79.31
19096;BME280;9680;52.520;13.332;2023-03-04T05:09:29;101343.13;;;4.73;79.25
19096;BME280;9680;52.520;13.332;2023-03-04T05:11:55;101338.84;;;4.73;78.99
19096;BME280;9680;52.520;13.332;2023-03-04T05:14:22;101347.44;;;4.72;78.70
19096;BME280;9680;52.520;13.332;2023-03-04T05:16:49;101343.16;;;4.71;78.93
19096;BME280;9680;52.520;13.332;2023-03-04T05:19:18;101340.53;;;4.76;79.28
19096;BME280;9680;52.520;13.332;2023-03-04T05:21:45;101339.69;;;4.75;79.19
19096;BME280;9680;52.520;13.332;2023-03-04T05:24:12;101339.69;;;4.74;79.02
19096;BME280;9680;52.520;13.332;2023-03-04T05:26:39;101331.09;;;4.70;79.29
19096;BME280;9680;52.520;13.332;2023-03-04T05:29:05;101331.09;;;4.72;79.35
19096;BME280;9680;52.520;13.332;2023-03-04T05:31:32;101331.09;;;4.69;79.29
19096;BME280;9680;52.520;13.332;2023-03-04T05:33:59;101332.84;;;4.68;79.30
19096;BME280;9680;52.520;13.332;2023-03-04T05:36:27;101328.56;;;4.64;79.49
19096;BME280;9680;52.520;13.332;2023-03-04T05:38:54;101331.97;;;4.64;79.63
19096;BME280;9680;52.520;13.332;2023-03-04T05:41:20;101325.97;;;4.67;79.67
19096;BME280;9680;52.520;13.332;2023-03-04T05:43:48;101330.25;;;4.66;79.73
19096;BME280;9680;52.520;13.332;2023-03-04T05:46:16;101333.69;;;4.65;79.88
19096;BME280;9680;52.520;13.332;2023-03-04T05:48:48;101336.28;;;4.65;79.85
19096;BME280;9680;52.520;13.332;2023-03-04T05:51:15;101330.25;;;4.66;79.92
19096;BME280;9680;52.520;13.332;2023-03-04T05:53:43;101327.69;;;4.68;79.88
19096;BME280;9680;52.520;13.332;2023-03-04T05:56:11;101327.69;;;4.68;80.20
19096;BME280;9680;52.520;13.332;2023-03-04T05:58:39;101324.22;;;4.68;80.02
19096;BME280;9680;52.520;13.332;2023-03-04T06:01:06;101335.41;;;4.68;80.39
19096;BME280;9680;52.520;13.332;2023-03-04T06:03:33;101329.38;;;4.63;80.65
19096;BME280;9680;52.520;13.332;2023-03-04T06:06:01;101330.25;;;4.62;80.80
19096;BME280;9680;52.520;13.332;2023-03-04T06:08:28;101327.66;;;4.62;80.88
19096;BME280;9680;52.520;13.332;2023-03-04T06:10:56;101331.13;;;4.62;81.22
19096;BME280;9680;52.520;13.332;2023-03-04T06:13:23;101331.13;;;4.67;81.23
19096;BME280;9680;52.520;13.332;2023-03-04T06:15:53;101329.38;;;4.69;81.43
19096;BME280;9680;52.520;13.332;2023-03-04T06:18:21;101328.50;;;4.69;81.30
19096;BME280;9680;52.520;13.332;2023-03-04T06:20:47;101331.09;;;4.72;81.40
19096;BME280;9680;52.520;13.332;2023-03-04T06:23:14;101331.91;;;4.77;81.47
19096;BME280;9680;52.520;13.332;2023-03-04T06:25:41;101327.63;;;4.73;81.70
19096;BME280;9680;52.520;13.332;2023-03-04T06:28:09;101333.66;;;4.75;81.80
19096;BME280;9680;52.520;13.332;2023-03-04T06:30:36;101339.69;;;4.75;82.04
19096;BME280;9680;52.520;13.332;2023-03-04T06:33:03;101330.19;;;4.79;82.02
19096;BME280;9680;52.520;13.332;2023-03-04T06:35:30;101327.59;;;4.84;82.23
19096;BME280;9680;52.520;13.332;2023-03-04T06:37:57;101339.59;;;4.89;82.24
19096;BME280;9680;52.520;13.332;2023-03-04T06:40:24;101336.19;;;4.86;82.45
19096;BME280;9680;52.520;13.332;2023-03-04T06:42:50;101334.50;;;4.78;82.64
19096;BME280;9680;52.520;13.332;2023-03-04T06:45:18;101337.09;;;4.78;83.20
19096;BME280;9680;52.520;13.332;2023-03-04T06:47:45;101332.75;;;4.84;83.67
19096;BME280;9680;52.520;13.332;2023-03-04T06:50:12;101337.91;;;4.85;83.67
19096;BME280;9680;52.520;13.332;2023-03-04T06:52:39;101347.38;;;4.86;83.81
19096;BME280;9680;52.520;13.332;2023-03-04T06:55:07;101339.63;;;4.86;84.07
19096;BME280;9680;52.520;13.332;2023-03-04T06:57:34;101341.31;;;4.92;83.82
19096;BME280;9680;52.520;13.332;2023-03-04T07:00:01;101339.66;;;4.85;83.93
19096;BME280;9680;52.520;13.332;2023-03-04T07:02:30;101335.34;;;4.87;84.19
19096;BME280;9680;52.520;13.332;2023-03-04T07:04:56;101343.06;;;4.87;84.18
19096;BME280;9680;52.520;13.332;2023-03-04T07:07:23;101337.91;;;4.87;84.25
19096;BME280;9680;52.520;13.332;2023-03-04T07:09:51;101331.81;;;4.95;84.79
19096;BME280;9680;52.520;13.332;2023-03-04T07:12:18;101340.41;;;5.05;84.96
19096;BME280;9680;52.520;13.332;2023-03-04T07:14:45;101348.13;;;5.13;84.84
19096;BME280;9680;52.520;13.332;2023-03-04T07:17:11;101351.53;;;5.14;84.94
19096;BME280;9680;52.520;13.332;2023-03-04T07:19:39;101343.84;;;5.09;84.38
19096;BME280;9680;52.520;13.332;2023-03-04T07:22:07;101355.00;;;5.09;84.76
19096;BME280;9680;52.520;13.332;2023-03-04T07:24:34;101350.69;;;5.13;84.75
19096;BME280;9680;52.520;13.332;2023-03-04T07:27:00;101349.75;;;5.22;84.92
19096;BME280;9680;52.520;13.332;2023-03-04T07:29:27;101349.78;;;5.23;84.60
19096;BME280;9680;52.520;13.332;2023-03-04T07:31:54;101350.66;;;5.19;84.84
19096;BME280;9680;52.520;13.332;2023-03-04T07:34:20;101350.63;;;5.25;85.37
19096;BME280;9680;52.520;13.332;2023-03-04T07:36:49;101344.63;;;5.19;85.25
19096;BME280;9680;52.520;13.332;2023-03-04T07:39:15;101340.34;;;5.16;85.75
19096;BME280;9680;52.520;13.332;2023-03-04T07:41:42;101342.09;;;5.14;86.07
19096;BME280;9680;52.520;13.332;2023-03-04T07:44:11;101342.88;;;5.21;86.33
19096;BME280;9680;52.520;13.332;2023-03-04T07:46:38;101342.84;;;5.27;86.79
19096;BME280;9680;52.520;13.332;2023-03-04T07:49:06;101342.03;;;5.19;86.65
19096;BME280;9680;52.520;13.332;2023-03-04T07:51:33;101338.59;;;5.18;87.19
19096;BME280;9680;52.520;13.332;2023-03-04T07:54:01;101342.81;;;5.35;87.31
19096;BME280;9680;52.520;13.332;2023-03-04T07:56:30;101342.78;;;5.43;86.96
19096;BME280;9680;52.520;13.332;2023-03-04T07:58:57;101344.47;;;5.47;86.81
19096;BME280;9680;52.520;13.332;2023-03-04T08:01:27;101341.03;;;5.43;86.55
19096;BME280;9680;52.520;13.332;2023-03-04T08:03:54;101344.50;;;5.41;86.26
19096;BME280;9680;52.520;13.332;2023-03-04T08:06:22;101343.63;;;5.43;86.74
19096;BME280;9680;52.520;13.332;2023-03-04T08:08:55;101352.19;;;5.48;86.15
19096;BME280;9680;52.520;13.332;2023-03-04T08:11:24;101340.13;;;5.52;86.51
19096;BME280;9680;52.520;13.332;2023-03-04T08:13:50;101340.88;;;5.63;86.16
19096;BME280;9680;52.520;13.332;2023-03-04T08:16:19;101346.94;;;5.62;85.49
19096;BME280;9680;52.520;13.332;2023-03-04T08:18:48;101341.75;;;5.67;85.84
19096;BME280;9680;52.520;13.332;2023-03-04T08:21:17;101326.16;;;5.73;85.10
19096;BME280;9680;52.520;13.332;2023-03-04T08:23:45;101342.56;;;5.72;83.81
19096;BME280;9680;52.520;13.332;2023-03-04T08:26:14;101329.63;;;5.72;83.97
19096;BME280;9680;52.520;13.332;2023-03-04T08:28:42;101330.44;;;5.76;83.41
19096;BME280;9680;52.520;13.332;2023-03-04T08:31:11;101329.63;;;5.72;82.35
19096;BME280;9680;52.520;13.332;2023-03-04T08:33:38;101330.44;;;5.77;82.14
19096;BME280;9680;52.520;13.332;2023-03-04T08:36:05;101331.25;;;5.81;81.34
19096;BME280;9680;52.520;13.332;2023-03-04T08:38:32;101330.34;;;5.88;80.64
19096;BME280;9680;52.520;13.332;2023-03-04T08:40:59;101322.50;;;5.96;80.07
19096;BME280;9680;52.520;13.332;2023-03-04T08:43:27;101330.22;;;6.07;78.67
19096;BME280;9680;52.520;13.332;2023-03-04T08:45:55;101315.47;;;6.14;76.12
19096;BME280;9680;52.520;13.332;2023-03-04T08:48:22;101318.78;;;6.25;76.53
19096;BME280;9680;52.520;13.332;2023-03-04T08:50:50;101315.22;;;6.38;75.88
19096;BME280;9680;52.520;13.332;2023-03-04T08:53:18;101306.38;;;6.56;74.53
19096;BME280;9680;52.520;13.332;2023-03-04T08:55:45;101309.81;;;6.57;73.90
19096;BME280;9680;52.520;13.332;2023-03-04T08:58:13;101315.03;;;6.54;72.80
19096;BME280;9680;52.520;13.332;2023-03-04T09:00:42;101310.75;;;6.53;73.88
19096;BME280;9680;52.520;13.332;2023-03-04T09:03:11;101305.31;;;6.73;74.29
19096;BME280;9680;52.520;13.332;2023-03-04T09:05:38;101310.31;;;6.87;73.62
19096;BME280;9680;52.520;13.332;2023-03-04T09:08:05;101300.03;;;6.82;72.19
19096;BME280;9680;52.520;13.332;2023-03-04T09:10:32;101299.97;;;6.85;73.17
19096;BME280;9680;52.520;13.332;2023-03-04T09:12:58;101304.16;;;6.94;73.39
19096;BME280;9680;52.520;13.332;2023-03-04T09:15:26;101299.84;;;6.96;72.74
19096;BME280;9680;52.520;13.332;2023-03-04T09:17:52;101316.97;;;7.05;73.17
19096;BME280;9680;52.520;13.332;2023-03-04T09:20:21;101309.19;;;7.07;72.87
19096;BME280;9680;52.520;13.332;2023-03-04T09:22:47;101311.69;;;7.13;72.69
19096;BME280;9680;52.520;13.332;2023-03-04T09:25:14;101321.00;;;7.25;72.82
19096;BME280;9680;52.520;13.332;2023-03-04T09:27:41;101317.47;;;7.31;72.07
19096;BME280;9680;52.520;13.332;2023-03-04T09:30:08;101320.06;;;7.32;71.58
19096;BME280;9680;52.520;13.332;2023-03-04T09:32:36;101320.91;;;7.33;70.89
19096;BME280;9680;52.520;13.332;2023-03-04T09:35:04;101322.66;;;7.31;70.28
19096;BME280;9680;52.520;13.332;2023-03-04T09:37:32;101320.81;;;7.39;70.55
19096;BME280;9680;52.520;13.332;2023-03-04T09:39:59;101328.34;;;7.54;70.00
19096;BME280;9680;52.520;13.332;2023-03-04T09:42:29;101325.75;;;7.56;69.53
19096;BME280;9680;52.520;13.332;2023-03-04T09:44:59;101338.94;;;7.40;67.95
19096;BME280;9680;52.520;13.332;2023-03-04T09:47:27;101326.19;;;7.25;68.17
19096;BME280;9680;52.520;13.332;2023-03-04T09:49:56;101326.22;;;7.23;68.64
19096;BME280;9680;52.520;13.332;2023-03-04T09:52:33;101326.97;;;7.33;68.40
19096;BME280;9680;52.520;13.332;2023-03-04T09:55:09;101327.03;;;7.27;67.50
19096;BME280;9680;52.520;13.332;2023-03-04T09:57:46;101324.41;;;7.30;68.49
19096;BME280;9680;52.520;13.332;2023-03-04T10:00:19;101330.16;;;7.49;68.24
19096;BME280;9680;52.520;13.332;2023-03-04T10:03:01;101320.50;;;7.59;67.94
19096;BME280;9680;52.520;13.332;2023-03-04T10:05:31;101317.88;;;7.61;67.36
19096;BME280;9680;52.520;13.332;2023-03-04T10:08:06;101329.31;;;7.47;66.82
19096;BME280;9680;52.520;13.332;2023-03-04T10:10:43;101323.53;;;7.28;66.79
19096;BME280;9680;52.520;13.332;2023-03-04T10:13:13;101324.56;;;7.19;67.13
19096;BME280;9680;52.520;13.332;2023-03-04T10:15:44;101313.22;;;7.25;67.92
19096;BME280;9680;52.520;13.332;2023-03-04T10:18:18;101322.53;;;7.40;67.71
19096;BME280;9680;52.520;13.332;2023-03-04T10:20:52;101319.91;;;7.41;66.97
19096;BME280;9680;52.520;13.332;2023-03-04T10:23:24;101319.13;;;7.36;66.65
19096;BME280;9680;52.520;13.332;2023-03-04T10:25:51;101314.00;;;7.32;65.97
19096;BME280;9680;52.520;13.332;2023-03-04T10:28:22;101321.94;;;7.21;66.35
19096;BME280;9680;52.520;13.332;2023-03-04T10:30:54;101321.03;;;7.23;66.98
19096;BME280;9680;52.520;13.332;2023-03-04T10:33:25;101322.63;;;7.34;66.84
19096;BME280;9680;52.520;13.332;2023-03-04T10:35:59;101315.50;;;7.47;65.21
19096;BME280;9680;52.520;13.332;2023-03-04T10:38:30;101309.25;;;7.58;63.60
19096;BME280;9680;52.520;13.332;2023-03-04T10:40:58;101315.91;;;7.75;62.00
19096;BME280;9680;52.520;13.332;2023-03-04T10:43:25;101310.41;;;7.92;62.46
19096;BME280;9680;52.520;13.332;2023-03-04T10:45:54;101314.34;;;8.15;60.42
19096;BME280;9680;52.520;13.332;2023-03-04T10:48:23;101300.63;;;8.10;58.75
19096;BME280;9680;52.520;13.332;2023-03-04T10:50:50;101309.00;;;8.24;60.24
19096;BME280;9680;52.520;13.332;2023-03-04T10:53:26;101308.84;;;8.32;58.59
19096;BME280;9680;52.520;13.332;2023-03-04T10:55:56;101305.44;;;8.30;58.37
19096;BME280;9680;52.520;13.332;2023-03-04T10:58:23;101307.16;;;8.29;57.74
19096;BME280;9680;52.520;13.332;2023-03-04T11:00:59;101315.03;;;8.25;56.80
19096;BME280;9680;52.520;13.332;2023-03-04T11:03:32;101335.06;;;8.18;55.84
19096;BME280;9680;52.520;13.332;2023-03-04T11:08:52;101319.56;;;8.13;57.05
19096;BME280;9680;52.520;13.332;2023-03-04T11:11:29;101309.34;;;8.04;56.80
19096;BME280;9680;52.520;13.332;2023-03-04T11:14:00;101329.06;;;8.14;56.70
19096;BME280;9680;52.520;13.332;2023-03-04T11:16:30;101331.00;;;8.03;56.65
19096;BME280;9680;52.520;13.332;2023-03-04T11:19:02;101324.22;;;7.94;57.20
19096;BME280;9680;52.520;13.332;2023-03-04T11:21:35;101333.00;;;7.87;56.83
19096;BME280;9680;52.520;13.332;2023-03-04T11:24:05;101318.41;;;7.80;57.45
19096;BME280;9680;52.520;13.332;2023-03-04T11:26:39;101323.81;;;7.67;57.46
19096;BME280;9680;52.520;13.332;2023-03-04T11:29:13;101328.94;;;7.72;57.78
19096;BME280;9680;52.520;13.332;2023-03-04T11:31:45;101329.13;;;7.60;57.71
19096;BME280;9680;52.520;13.332;2023-03-04T11:34:19;101330.97;;;7.51;58.62
19096;BME280;9680;52.520;13.332;2023-03-04T11:36:53;101340.31;;;7.62;58.73
19096;BME280;9680;52.520;13.332;2023-03-04T11:39:28;101329.88;;;7.68;58.24
19096;BME280;9680;52.520;13.332;2023-03-04T11:41:59;101327.84;;;7.84;58.55
19096;BME280;9680;52.520;13.332;2023-03-04T11:44:28;101334.53;;;7.99;57.00
19096;BME280;9680;52.520;13.332;2023-03-04T11:47:11;101337.00;;;8.05;57.19
19096;BME280;9680;52.520;13.332;2023-03-04T11:50:05;101329.78;;;7.74;55.41
19096;BME280;9680;52.520;13.332;2023-03-04T11:52:46;101340.41;;;7.57;56.30
19096;BME280;9680;52.520;13.332;2023-03-04T11:55:25;101332.78;;;7.48;56.69
19096;BME280;9680;52.520;13.332;2023-03-04T11:58:03;101325.00;;;7.48;56.03
19096;BME280;9680;52.520;13.332;2023-03-04T12:00:37;101328.53;;;7.42;56.47
19096;BME280;9680;52.520;13.332;2023-03-04T12:03:23;101336.31;;;7.43;55.98
19096;BME280;9680;52.520;13.332;2023-03-04T12:05:58;101343.19;;;7.45;56.09
19096;BME280;9680;52.520;13.332;2023-03-04T12:08:42;101342.41;;;7.39;55.48
19096;BME280;9680;52.520;13.332;2023-03-04T12:11:19;101344.28;;;7.29;55.05
19096;BME280;9680;52.520;13.332;2023-03-04T12:16:55;101336.41;;;7.36;54.70
19096;BME280;9680;52.520;13.332;2023-03-04T12:19:34;101330.19;;;7.46;54.88
19096;BME280;9680;52.520;13.332;2023-03-04T12:22:18;101320.50;;;7.57;53.49
19096;BME280;9680;52.520;13.332;2023-03-04T12:27:55;101329.22;;;7.55;53.56
19096;BME280;9680;52.520;13.332;2023-03-04T12:30:36;101331.91;;;7.47;53.69
19096;BME280;9680;52.520;13.332;2023-03-04T12:33:15;101331.13;;;7.42;53.54
19096;BME280;9680;52.520;13.332;2023-03-04T12:35:51;101328.63;;;7.37;54.01
19096;BME280;9680;52.520;13.332;2023-03-04T12:38:28;101339.09;;;7.31;54.18
19096;BME280;9680;52.520;13.332;2023-03-04T12:41:08;101328.59;;;7.39;54.42
19096;BME280;9680;52.520;13.332;2023-03-04T12:43:50;101331.03;;;7.48;53.90
19096;BME280;9680;52.520;13.332;2023-03-04T12:46:36;101334.44;;;7.50;53.60
19096;BME280;9680;52.520;13.332;2023-03-04T12:49:27;101343.16;;;7.46;53.20
19096;BME280;9680;52.520;13.332;2023-03-04T12:52:07;101334.59;;;7.42;53.66
19096;BME280;9680;52.520;13.332;2023-03-04T12:54:39;101339.00;;;7.37;53.35
19096;BME280;9680;52.520;13.332;2023-03-04T12:57:09;101324.31;;;7.36;53.92
19096;BME280;9680;52.520;13.332;2023-03-04T12:59:43;101332.84;;;7.45;53.59
19096;BME280;9680;52.520;13.332;2023-03-04T13:02:40;101324.22;;;7.42;53.41
19096;BME280;9680;52.520;13.332;2023-03-04T13:05:23;101323.09;;;7.57;54.08
19096;BME280;9680;52.520;13.332;2023-03-04T13:08:02;101319.00;;;7.44;52.72
19096;BME280;9680;52.520;13.332;2023-03-04T13:10:31;101336.41;;;7.36;53.39
19096;BME280;9680;52.520;13.332;2023-03-04T13:13:00;101321.72;;;7.36;53.15
19096;BME280;9680;52.520;13.332;2023-03-04T13:15:30;101325.19;;;7.35;53.14
19096;BME280;9680;52.520;13.332;2023-03-04T13:18:00;101332.19;;;7.30;53.11
19096;BME280;9680;52.520;13.332;2023-03-04T13:20:37;101331.38;;;7.26;53.46